TimeCST,TemperatureF,Dew PointF,Humidity,Sea Level PressureIn,VisibilityMPH,Wind Direction,Wind SpeedMPH,Gust SpeedMPH,PrecipitationIn,Events,Conditions,WindDirDegrees,DateUTC
12:55 AM,56.7,56.5,99,30.27,10.0,East,5.8,-,N/A,,Clear,80,2012-12-02 06:55:00
1:55 AM,56.7,56.5,99,30.26,10.0,East,4.6,-,N/A,,Clear,80,2012-12-02 07:55:00
2:55 AM,57.6,57.2,99,30.27,10.0,Calm,Calm,-,N/A,,Mostly Cloudy,0,2012-12-02 08:55:00
3:55 AM,56.8,56.8,100,30.27,10.0,East,6.9,-,N/A,,Clear,90,2012-12-02 09:55:00
4:55 AM,56.3,56.3,100,30.28,10.0,East,4.6,-,N/A,,Clear,90,2012-12-02 10:55:00
5:55 AM,56.3,56.3,100,30.29,10.0,East,4.6,-,N/A,,Scattered Clouds,90,2012-12-02 11:55:00
6:55 AM,56.7,56.7,100,30.31,10.0,East,5.8,-,N/A,,Clear,80,2012-12-02 12:55:00
7:55 AM,58.8,58.5,99,30.33,10.0,East,3.5,-,N/A,,Clear,100,2012-12-02 13:55:00
8:55 AM,62.6,60.4,93,30.35,10.0,East,5.8,-,N/A,,Mostly Cloudy,90,2012-12-02 14:55:00
9:55 AM,68.0,62.6,83,30.34,10.0,East,5.8,-,N/A,,Clear,80,2012-12-02 15:55:00
10:55 AM,72.9,64.8,76,30.32,10.0,Variable,5.8,-,N/A,,Clear,0,2012-12-02 16:55:00
11:55 AM,74.8,65.3,72,30.29,10.0,South,6.9,-,N/A,,Partly Cloudy,170,2012-12-02 17:55:00
12:55 PM,74.7,65.3,73,30.26,10.0,SSW,8.1,-,N/A,,Clear,210,2012-12-02 18:55:00
1:55 PM,74.7,66.6,76,30.25,10.0,SSW,10.4,-,N/A,,Clear,210,2012-12-02 19:55:00
2:55 PM,73.0,65.8,78,30.25,10.0,SSW,8.1,-,N/A,,Clear,200,2012-12-02 20:55:00
3:55 PM,70.0,65.3,85,30.24,10.0,South,5.8,-,N/A,,Clear,180,2012-12-02 21:55:00
4:55 PM,65.8,63.5,92,30.25,10.0,SSE,3.5,-,N/A,,Clear,160,2012-12-02 22:55:00
5:55 PM,62.6,62.2,99,30.25,10.0,Calm,Calm,-,N/A,,Clear,0,2012-12-02 23:55:00
6:55 PM,59.4,59.2,99,30.25,10.0,Calm,Calm,-,N/A,,Clear,0,2012-12-03 00:55:00
7:55 PM,58.1,58.1,100,30.25,10.0,Calm,Calm,-,N/A,,Clear,0,2012-12-03 01:55:00
8:55 PM,55.9,55.9,100,30.26,10.0,Calm,Calm,-,N/A,,Clear,0,2012-12-03 02:55:00
9:38 PM,55.4,55.4,100,30.26,1.2,Calm,Calm,-,N/A,,Clear,0,2012-12-03 03:38:00
9:42 PM,55.4,55.4,100,30.26,0.8,Calm,Calm,-,N/A,,Clear,0,2012-12-03 03:42:00
9:43 PM,55.4,55.4,100,30.26,0.8,Calm,Calm,-,N/A,,Clear,0,2012-12-03 03:43:00
9:46 PM,55.4,55.4,100,30.26,0.5,Calm,Calm,-,N/A,Fog,Fog,0,2012-12-03 03:46:00
9:48 PM,55.4,55.4,100,30.26,0.5,Calm,Calm,-,N/A,Fog,Fog,0,2012-12-03 03:48:00
9:55 PM,55.0,55.0,100,30.26,0.5,Calm,Calm,-,N/A,Fog,Fog,0,2012-12-03 03:55:00
10:00 PM,55.4,55.4,100,30.26,0.5,Calm,Calm,-,N/A,Fog,Fog,0,2012-12-03 04:00:00
10:01 PM,55.4,55.4,100,30.26,0.8,Calm,Calm,-,N/A,,Clear,0,2012-12-03 04:01:00
10:08 PM,53.6,53.6,100,30.26,6.0,Calm,Calm,-,N/A,,Clear,0,2012-12-03 04:08:00
10:32 PM,53.6,53.6,100,30.26,4.0,Calm,Calm,-,N/A,,Clear,0,2012-12-03 04:32:00
10:35 PM,53.6,53.6,100,30.26,2.5,Calm,Calm,-,N/A,,Clear,0,2012-12-03 04:35:00
10:36 PM,53.6,53.6,100,30.26,2.0,Calm,Calm,-,N/A,,Clear,0,2012-12-03 04:36:00
10:40 PM,53.6,53.6,100,30.26,2.0,Calm,Calm,-,N/A,,Clear,0,2012-12-03 04:40:00
10:41 PM,53.6,53.6,100,30.26,2.5,Calm,Calm,-,N/A,,Clear,0,2012-12-03 04:41:00
10:46 PM,53.6,53.6,100,30.26,6.0,Calm,Calm,-,N/A,,Clear,0,2012-12-03 04:46:00
10:55 PM,53.4,53.4,100,30.26,10.0,Calm,Calm,-,N/A,,Clear,0,2012-12-03 04:55:00
11:06 PM,53.6,53.6,100,30.26,3.0,Calm,Calm,-,N/A,,Clear,0,2012-12-03 05:06:00
11:11 PM,53.6,53.6,100,30.26,0.8,Calm,Calm,-,N/A,,Clear,0,2012-12-03 05:11:00
11:14 PM,53.6,53.6,100,30.26,0.5,Calm,Calm,-,N/A,Fog,Fog,0,2012-12-03 05:14:00
11:21 PM,53.6,53.6,100,30.26,0.5,Calm,Calm,-,N/A,Fog,Fog,0,2012-12-03 05:21:00
11:22 PM,53.6,53.6,100,30.26,0.8,Calm,Calm,-,N/A,,Clear,0,2012-12-03 05:22:00
11:30 PM,53.6,53.6,100,30.26,1.8,Calm,Calm,-,N/A,,Clear,0,2012-12-03 05:30:00
11:40 PM,53.6,53.6,100,30.25,5.0,Calm,Calm,-,N/A,,Clear,0,2012-12-03 05:40:00
11:55 PM,52.5,52.5,100,30.26,1.2,Calm,Calm,-,N/A,,Clear,0,2012-12-03 05:55:00
11:56 PM,51.8,51.8,100,30.26,1.0,Calm,Calm,-,N/A,,Clear,0,2012-12-03 05:56:00
11:57 PM,51.8,51.8,100,30.25,0.8,Calm,Calm,-,N/A,,Clear,0,2012-12-03 05:57:00